Teuge International Airport

EHTE · Gheldria, Paesi Bassi

7 ottobre 2022

Tempo Codice Tempo metereologico Temp. Vista Base nuvolosa Vento METAR/SPECI
14:25
V
17 °C 10 km+ - 220° 220° 14 kt METAR EHLE 071225Z AUTO 22014KT 170V250 9999 FEW035 17/11 Q1019 NOSIG
13:55
V
16 °C 10 km+ 4.900 ft 210° 210° 13 kt METAR EHLE 071155Z AUTO 21013KT 180V240 9999 OVC049 16/12 Q1020 NOSIG
13:25
V
16 °C 10 km+ - 220° 220° 12 kt METAR EHLE 071125Z AUTO 22012KT 170V250 9999 NSC 16/11 Q1020 NOSIG
12:55
V
15 °C 10 km+ 4.900 ft 210° 210° 12 kt METAR EHLE 071055Z AUTO 21012KT 170V250 9999 FEW029 BKN049 15/11 Q1021 NOSIG
12:25
V
15 °C 10 km+ 4.100 ft 200° 200° 12 kt METAR EHLE 071025Z AUTO 20012KT 9999 BKN041 OVC047 15/11 Q1021 NOSIG
11:55
V
15 °C 10 km+ 4.900 ft 200° 200° 13 kt METAR EHLE 070955Z AUTO 20013KT 170V230 9999 FEW038 OVC049 15/11 Q1021 NOSIG
11:25
V
15 °C 10 km+ - 210° 210° 13 kt METAR EHLE 070925Z AUTO 21013KT 180V240 9999 NSC 15/11 Q1022 NOSIG
10:55
V
14 °C 10 km+ - 200° 200° 12 kt METAR EHLE 070855Z AUTO 20012KT 170V230 9999 NSC 14/10 Q1022 NOSIG
10:25
V
13 °C 10 km+ - 210° 210° 10 kt METAR EHLE 070825Z AUTO 21010KT 9999 FEW049 13/10 Q1022 NOSIG
09:55
V
12 °C 10 km+ - 200° 200° 11 kt METAR EHLE 070755Z AUTO 20011KT 170V230 9999 NSC 12/09 Q1022 NOSIG
09:25
V
11 °C 10 km+ - 200° 200° 10 kt METAR EHLE 070725Z AUTO 20010KT 170V230 9999 NSC 11/09 Q1022 NOSIG
08:55
V
11 °C 10 km+ - 200° 200° 9 kt METAR EHLE 070655Z AUTO 20009KT 9999 FEW044 11/09 Q1022 NOSIG
08:25
V
10 °C 10 km+ - 200° 200° 10 kt METAR EHLE 070625Z AUTO 20010KT 9999 FEW047 10/08 Q1022 NOSIG
07:55
V
10 °C 10 km+ - 200° 200° 8 kt METAR EHLE 070555Z AUTO 20008KT 9999 NCD 10/08 Q1023 NOSIG
07:25
V
9 °C 10 km+ - 200° 200° 8 kt METAR EHLE 070525Z AUTO 20008KT 9999 NSC 09/08 Q1023 NOSIG
06:55
V
9 °C 10 km+ - 190° 190° 9 kt METAR EHLE 070455Z AUTO 19009KT 160V220 9999 NCD 09/08 Q1023 NOSIG
06:25
V
9 °C 10 km+ - 190° 190° 8 kt METAR EHLE 070425Z AUTO 19008KT 170V230 9999 NCD 09/08 Q1023
05:55
V
10 °C 10 km+ - 200° 200° 8 kt METAR EHLE 070355Z AUTO 20008KT 9999 NCD 10/08 Q1023
05:25
V
10 °C 10 km+ - 200° 200° 8 kt METAR EHLE 070325Z AUTO 20008KT 9999 NCD 10/08 Q1024
04:55
V
9 °C 10 km+ - 190° 190° 8 kt METAR EHLE 070255Z AUTO 19008KT 9999 NCD 09/08 Q1024
04:25
V
7 °C 10 km+ - 180° 180° 7 kt METAR EHLE 070225Z AUTO 18007KT 9999 NCD 07/06 Q1024
03:55
V
9 °C 10 km+ - 190° 190° 7 kt METAR EHLE 070155Z AUTO 19007KT 9999 NCD 09/08 Q1025
03:25
V
10 °C 10 km+ - 190° 190° 9 kt METAR EHLE 070125Z AUTO 19009KT 9999 NCD 10/08 Q1025
02:55
V
10 °C 10 km+ - 200° 200° 8 kt METAR EHLE 070055Z AUTO 20008KT 9999 NCD 10/08 Q1025
02:25
V
7 °C 10 km+ - 200° 200° 6 kt METAR EHLE 070025Z AUTO 20006KT 9999 NCD 07/06 Q1026
01:55
V
7 °C 10 km+ - 190° 190° 6 kt METAR EHLE 062355Z AUTO 19006KT 9999 NSC 07/06 Q1026
01:25
V
8 °C 10 km+ - 180° 180° 7 kt METAR EHLE 062325Z AUTO 18007KT 9999 NCD 08/07 Q1026
00:55
V
8 °C 10 km+ - 180° 180° 5 kt METAR EHLE 062255Z AUTO 18005KT 9999 NCD 08/06 Q1027
00:25
V
7 °C 10 km+ - 180° 180° 6 kt METAR EHLE 062225Z AUTO 18006KT 9999 NSC 07/06 Q1027

6 ottobre 2022

Tempo Codice Tempo metereologico Temp. Vista Base nuvolosa Vento METAR/SPECI
23:55
V
8 °C 10 km+ - 180° 180° 7 kt METAR EHLE 062155Z AUTO 18007KT 9999 NCD 08/07 Q1027
23:25
V
8 °C 10 km+ - 180° 180° 6 kt METAR EHLE 062125Z AUTO 18006KT 9999 NCD 08/06 Q1027
22:55
V
8 °C 10 km+ - 190° 190° 5 kt METAR EHLE 062055Z AUTO 19005KT 9999 NCD 08/07 Q1028
22:25
V
9 °C 10 km+ - 200° 200° 5 kt METAR EHLE 062025Z AUTO 20005KT 9999 NCD 09/07 Q1028 NOSIG
21:55
V
10 °C 10 km+ - 200° 200° 5 kt METAR EHLE 061955Z AUTO 20005KT 9999 NCD 10/07 Q1028 NOSIG
21:25
V
10 °C 10 km+ - 210° 210° 5 kt METAR EHLE 061925Z AUTO 21005KT 9999 NSC 10/07 Q1028 NOSIG
20:55
V
8 °C 10 km+ - 180° 180° 5 kt METAR EHLE 061855Z AUTO 18005KT 9999 NCD 08/07 Q1028 NOSIG
20:25
V
10 °C 10 km+ - 180° 180° 6 kt METAR EHLE 061825Z AUTO 18006KT 9999 NSC 10/07 Q1028 NOSIG
19:55
V
11 °C 10 km+ - 190° 190° 5 kt METAR EHLE 061755Z AUTO 19005KT 9999 NSC 11/07 Q1028 NOSIG
19:25
V
12 °C 10 km+ - 220° 220° 7 kt METAR EHLE 061725Z AUTO 22007KT 9999 NSC 12/07 Q1028 NOSIG
18:55
V
13 °C 10 km+ - 230° 230° 10 kt METAR EHLE 061655Z AUTO 23010KT 9999 NCD 13/07 Q1028 NOSIG
18:25
V
14 °C 10 km+ - 240° 240° 10 kt METAR EHLE 061625Z AUTO 24010KT 9999 NSC 14/07 Q1028 NOSIG
17:55
V
15 °C 10 km+ - 230° 230° 13 kt METAR EHLE 061555Z AUTO 23013KT 200V260 9999 NSC 15/07 Q1028 NOSIG
17:25
V
16 °C 10 km+ - 240° 240° 11 kt METAR EHLE 061525Z AUTO 24011KT 210V270 9999 NSC 16/07 Q1028 NOSIG
16:55
V
16 °C 10 km+ - 240° 240° 13 kt METAR EHLE 061455Z AUTO 24013KT 9999 FEW037 16/09 Q1028 NOSIG
16:25
V
17 °C 10 km+ 3.900 ft 240° 240° 14 kt METAR EHLE 061425Z AUTO 24014KT 200V270 9999 BKN039 17/08 Q1028 NOSIG
15:55
V
17 °C 10 km+ - 240° 240° 12 kt METAR EHLE 061355Z AUTO 24012KT 200V270 9999 FEW039 17/08 Q1028 NOSIG
15:25
V
17 °C 10 km+ - 250° 250° 16 kt METAR EHLE 061325Z AUTO 25016KT 220V280 9999 NCD 17/08 Q1028 NOSIG
14:55
V
16 °C 10 km+ - 250° 250° 17 kt METAR EHLE 061255Z AUTO 25017KT 9999 NCD 16/08 Q1028 NOSIG
14:25
V
17 °C 10 km+ - 250° 250° 16 kt METAR EHLE 061225Z AUTO 25016KT 210V280 9999 NCD 17/07 Q1028 NOSIG
13:55
V
17 °C 10 km+ - 240° 240° 16 kt METAR EHLE 061155Z AUTO 24016KT 200V270 9999 FEW037 17/08 Q1028 NOSIG
13:25
V
16 °C 10 km+ - 240° 240° 16 kt METAR EHLE 061125Z AUTO 24016KT 9999 NCD 16/08 Q1028 NOSIG
12:55
V
16 °C 10 km+ - 240° 240° 17 kt METAR EHLE 061055Z AUTO 24017KT 210V270 9999 FEW039 16/08 Q1028 NOSIG
12:25
V
16 °C 10 km+ - 260° 260° 14 kt METAR EHLE 061025Z AUTO 26014KT 230V290 9999 SCT032 16/09 Q1028 NOSIG
11:55
M
16 °C 10 km+ 2.600 ft 230° 230° 14 kt METAR EHLE 060955Z AUTO 23014KT 210V280 9999 BKN026 BKN030 16/11 Q1028 NOSIG
11:25
V
15 °C 10 km+ - 230° 230° 13 kt METAR EHLE 060925Z AUTO 23013KT 190V260 9999 NCD 15/10 Q1027 NOSIG
10:55
V
14 °C 10 km+ - 230° 230° 10 kt METAR EHLE 060855Z AUTO 23010KT 9999 NCD 14/10 Q1027 NOSIG
10:25
V
14 °C 10 km+ - 220° 220° 9 kt METAR EHLE 060825Z AUTO 22009KT 190V250 9999 NCD 14/10 Q1027 NOSIG
09:55
V
13 °C 10 km+ - 220° 220° 9 kt METAR EHLE 060755Z AUTO 22009KT 9999 NCD 13/10 Q1026 NOSIG
09:25
V
12 °C 10 km+ - 220° 220° 8 kt METAR EHLE 060725Z AUTO 22008KT 9999 NCD 12/09 Q1026 NOSIG
08:55
V
11 °C 10 km+ - 220° 220° 7 kt METAR EHLE 060655Z AUTO 22007KT 9999 NCD 11/08 Q1025 NOSIG
08:25
V
10 °C 10 km+ - 210° 210° 6 kt METAR EHLE 060625Z AUTO 21006KT 9999 NCD 10/08 Q1025 NOSIG
07:55
V
10 °C 10 km+ - 220° 220° 6 kt METAR EHLE 060555Z AUTO 22006KT 9999 NCD 10/08 Q1025 NOSIG
07:25
V
10 °C 10 km+ - 220° 220° 7 kt METAR EHLE 060525Z AUTO 22007KT 9999 NCD 10/08 Q1024 NOSIG
06:55
V
10 °C 10 km+ - 220° 220° 7 kt METAR EHLE 060455Z AUTO 22007KT 9999 FEW032 10/08 Q1024 NOSIG
06:25
V
10 °C 10 km+ - 220° 220° 7 kt METAR EHLE 060425Z AUTO 22007KT 9999 NCD 10/08 Q1023
05:55
V
10 °C 10 km+ - 240° 240° 7 kt METAR EHLE 060355Z AUTO 24007KT 9999 NCD 10/08 Q1023
05:25
V
11 °C 10 km+ - 250° 250° 7 kt METAR EHLE 060325Z AUTO 25007KT 9999 FEW033 11/08 Q1022
04:55
V
11 °C 10 km+ - 250° 250° 9 kt METAR EHLE 060255Z AUTO 25009KT 9999 NCD 11/08 Q1022
04:25
V
12 °C 10 km+ - 260° 260° 10 kt METAR EHLE 060225Z AUTO 26010KT 9999 NSC 12/08 Q1021
03:55
V
13 °C 10 km+ - 260° 260° 13 kt METAR EHLE 060155Z AUTO 26013KT 9999 NCD 13/08 Q1021
03:25
V
13 °C 10 km+ - 260° 260° 12 kt METAR EHLE 060125Z AUTO 26012KT 9999 FEW035 13/09 Q1020
02:55
V
13 °C 10 km+ - 260° 260° 13 kt METAR EHLE 060055Z AUTO 26013KT 9999 FEW033 13/09 Q1020
02:25
V
14 °C 10 km+ 3.200 ft 260° 260° 13 kt METAR EHLE 060025Z AUTO 26013KT 9999 BKN032 BKN039 14/10 Q1019
01:55
V
13 °C 10 km+ 3.100 ft 250° 250° 8 kt METAR EHLE 052355Z AUTO 25008KT 9999 BKN031 BKN038 BKN044 13/11 Q1018
01:25
V
14 °C 10 km+ - 240° 240° 12 kt METAR EHLE 052325Z AUTO 24012KT 9999 SCT032 SCT043 14/11 Q1018
00:55
V
14 °C 10 km+ 3.700 ft 240° 240° 13 kt METAR EHLE 052255Z AUTO 24013KT 9999 FEW027 BKN037 14/11 Q1017
00:25
V
13 °C 10 km+ - 230° 230° 9 kt METAR EHLE 052225Z AUTO 23009KT 9999 NSC 13/11 Q1017

5 ottobre 2022

Tempo Codice Tempo metereologico Temp. Vista Base nuvolosa Vento METAR/SPECI
23:55
V
14 °C 10 km+ - 240° 240° 10 kt METAR EHLE 052155Z AUTO 24010KT 9999 NSC 14/11 Q1016
23:25
V
14 °C 10 km+ - 250° 250° 12 kt METAR EHLE 052125Z AUTO 25012KT 9999 NSC 14/12 Q1016
22:55
V
14 °C 10 km+ - 250° 250° 13 kt METAR EHLE 052055Z AUTO 25013KT 9999 NSC 14/12 Q1015 REDZ
22:25
V
15 °C 10 km+ - 250° 250° 14 kt METAR EHLE 052025Z AUTO 25014KT 9999 NSC 15/13 Q1015
21:55
V
14 °C 10 km+ - 240° 240° 14 kt METAR EHLE 051955Z AUTO 24014KT 9999 FEW015CB SCT047 14/12 Q1014 RERA REDZ NOSIG
21:25
M
16 °C 6 km 2.000 ft 230° 230° 22 kt METAR EHLE 051925Z AUTO 23022KT 190V260 6000 -RADZ SCT017 OVC020 16/13 Q1013 TEMPO 4000 DZRA BECMG 26012KT
20:55
M
17 °C 10 km+ 2.400 ft 210° 210° 17 kt METAR EHLE 051855Z AUTO 21017KT 170V240 9999 FEW012 OVC024 17/13 Q1012 TEMPO 4000 SHRA SCT018TCU BECMG 26014KT
20:25
M
17 °C 10 km+ 2.300 ft 210° 210° 17 - 27 kt METAR EHLE 051825Z AUTO 21017G27KT 180V240 9999 OVC023 17/12 Q1012 NOSIG
19:55
M
17 °C 10 km+ 2.600 ft 210° 210° 15 kt METAR EHLE 051755Z AUTO 21015KT 9999 OVC026 17/12 Q1012 NOSIG
19:25
M
17 °C 10 km+ 2.500 ft 210° 210° 16 kt METAR EHLE 051725Z AUTO 21016KT 170V240 9999 OVC025 17/12 Q1012 NOSIG
18:55
M
17 °C 10 km+ 2.800 ft 210° 210° 16 kt METAR EHLE 051655Z AUTO 21016KT 180V240 9999 OVC028 17/12 Q1012 NOSIG
18:25
V
17 °C 10 km+ 3.100 ft 210° 210° 17 kt METAR EHLE 051625Z AUTO 21017KT 170V240 9999 OVC031 17/12 Q1012 NOSIG
17:55
V
17 °C 10 km+ 3.500 ft 210° 210° 19 kt METAR EHLE 051555Z AUTO 21019KT 180V250 9999 BKN035 OVC039 17/12 Q1011 NOSIG
17:25
V
17 °C 10 km+ 3.400 ft 210° 210° 18 kt METAR EHLE 051525Z AUTO 21018KT 180V240 9999 FEW030 BKN034 BKN039 17/12 Q1011 NOSIG
16:55
V
17 °C 10 km+ 3.000 ft 220° 220° 19 kt METAR EHLE 051455Z AUTO 22019KT 180V260 9999 FEW027 BKN030 OVC034 17/12 Q1012 NOSIG
16:25
V
17 °C 10 km+ 3.300 ft 220° 220° 17 kt METAR EHLE 051425Z AUTO 22017KT 180V250 9999 FEW029 OVC033 17/13 Q1011 NOSIG
15:55
V
17 °C 10 km+ 3.000 ft 220° 220° 18 - 28 kt METAR EHLE 051355Z AUTO 22018G28KT 190V250 9999 FEW027 OVC030 17/12 Q1011 NOSIG
15:25
M
17 °C 10 km+ 2.800 ft 220° 220° 22 kt METAR EHLE 051325Z AUTO 22022KT 190V250 9999 BKN028 OVC031 17/12 Q1011 NOSIG
14:55
M
17 °C 10 km+ 2.700 ft 210° 210° 20 kt METAR EHLE 051255Z AUTO 21020KT 190V250 9999 BKN027 OVC030 17/12 Q1011 NOSIG
Dati più vecchi

Noi e le terze parti seguiamo il tuo comportamento in internet sul nostro sito web con i cookie. Se continui, riteniamo che tu sia d'accordo con la nostra politica sui cookie. Per saperne di più